Time;durP1;ratioP1;P1;durP2;ratioP2;P2;SDS_P1;SDS_P2;PMS_P1;PMS_P2;Temp;Humidity;BMP_temperature;BMP_pressure;BME280_temperature;BME280_humidity;BME280_pressure;Samples;Min_cycle;Max_cycle;Signal;HPM_P1;HPM_P2
2021/12/27 00:00:42;;;;;;;19.38;5.13;;;10.90;99.90;;;;;;5029260;28;20111;-85
2021/12/27 00:03:08;;;;;;;27.40;6.88;;;10.90;99.90;;;;;;5012179;28;20036;-85
2021/12/27 00:05:34;;;;;;;21.85;4.47;;;10.90;99.90;;;;;;5011782;28;20405;-85
2021/12/27 00:07:59;;;;;;;17.73;5.80;;;11.00;99.90;;;;;;5029720;28;20033;-84
2021/12/27 00:10:28;;;;;;;17.88;5.30;;;11.00;99.90;;;;;;5029736;28;20033;-85
2021/12/27 00:12:54;;;;;;;20.20;5.28;;;11.00;99.90;;;;;;5029660;28;20496;-85
2021/12/27 00:15:20;;;;;;;14.23;5.03;;;11.00;99.90;;;;;;5029442;28;20025;-85
2021/12/27 00:17:47;;;;;;;14.68;3.95;;;11.10;99.90;;;;;;5029943;28;20091;-85
2021/12/27 00:20:15;;;;;;;16.45;4.78;;;11.10;99.90;;;;;;5029403;28;20123;-85
2021/12/27 00:22:42;;;;;;;20.67;4.68;;;11.10;99.90;;;;;;5029600;28;20497;-84
2021/12/27 00:25:09;;;;;;;12.02;4.45;;;11.10;99.90;;;;;;5029523;28;20466;-85
2021/12/27 00:27:35;;;;;;;16.30;4.22;;;11.10;99.90;;;;;;5029508;28;20029;-85
2021/12/27 00:30:00;;;;;;;16.70;4.47;;;11.20;99.90;;;;;;5029505;28;20076;-85
2021/12/27 00:32:26;;;;;;;13.15;4.68;;;11.20;99.90;;;;;;5029248;28;20041;-85
2021/12/27 00:34:52;;;;;;;11.95;4.22;;;11.20;99.90;;;;;;5011457;28;20083;-85
2021/12/27 00:37:18;;;;;;;14.65;3.53;;;11.20;99.90;;;;;;5029321;28;20104;-85
2021/12/27 00:39:44;;;;;;;15.52;4.47;;;11.20;99.90;;;;;;5029081;28;20112;-85
2021/12/27 00:42:10;;;;;;;14.15;4.82;;;11.20;99.90;;;;;;5029366;28;20532;-85
2021/12/27 00:44:35;;;;;;;14.63;4.28;;;11.20;99.90;;;;;;5029434;28;20036;-85
2021/12/27 00:47:01;;;;;;;14.25;3.83;;;11.20;99.90;;;;;;5011536;28;20025;-85
2021/12/27 00:49:27;;;;;;;14.35;4.35;;;11.10;99.90;;;;;;5011462;28;20276;-84
2021/12/27 00:51:53;;;;;;;12.82;3.95;;;11.10;99.90;;;;;;5031218;28;20248;-85
2021/12/27 00:54:19;;;;;;;15.05;4.13;;;11.10;99.90;;;;;;5032769;28;20086;-85
2021/12/27 00:56:44;;;;;;;16.00;5.07;;;11.10;99.90;;;;;;5032625;28;20049;-85
2021/12/27 00:59:10;;;;;;;16.00;5.22;;;11.10;99.90;;;;;;5032716;28;20029;-85
2021/12/27 01:01:36;;;;;;;16.23;5.32;;;11.10;99.90;;;;;;5032738;28;20045;-85
2021/12/27 01:04:03;;;;;;;15.50;4.55;;;11.00;99.90;;;;;;5032476;28;20081;-85
2021/12/27 01:06:29;;;;;;;16.35;5.22;;;11.00;99.90;;;;;;5014833;28;20166;-86
2021/12/27 01:08:55;;;;;;;14.45;4.85;;;11.00;99.90;;;;;;5032833;28;20123;-85
2021/12/27 01:14:01;;;;;;;13.50;4.72;;;10.90;99.90;;;;;;5032623;28;20025;-84
2021/12/27 01:16:27;;;;;;;15.80;5.45;;;10.80;99.90;;;;;;5032433;28;20398;-85
2021/12/27 01:18:53;;;;;;;15.18;6.07;;;10.80;99.90;;;;;;5032467;28;20040;-85
2021/12/27 01:21:22;;;;;;;20.67;5.40;;;10.90;99.90;;;;;;5032320;28;20554;-85
2021/12/27 01:23:49;;;;;;;13.68;4.80;;;10.80;99.90;;;;;;5032309;28;20018;-85
2021/12/27 01:26:15;;;;;;;16.63;5.78;;;10.80;99.90;;;;;;5014555;28;20032;-85
2021/12/27 01:28:41;;;;;;;25.75;6.20;;;10.80;99.90;;;;;;5032323;28;20402;-85
2021/12/27 01:31:07;;;;;;;14.52;4.82;;;10.80;99.90;;;;;;5032244;28;20405;-85
2021/12/27 01:33:33;;;;;;;17.33;5.70;;;10.90;99.90;;;;;;5032088;28;20105;-85
2021/12/27 01:36:01;;;;;;;11.95;5.50;;;10.80;99.90;;;;;;5031937;28;20033;-85
2021/12/27 01:38:27;;;;;;;15.90;4.72;;;10.80;99.90;;;;;;5031931;28;20026;-85
2021/12/27 01:40:57;;;;;;;18.60;5.80;;;10.80;99.90;;;;;;5031709;28;20040;-85
2021/12/27 01:43:28;;;;;;;17.67;5.18;;;10.80;99.90;;;;;;5014164;28;20064;-85
2021/12/27 01:46:00;;;;;;;17.00;5.32;;;10.80;99.90;;;;;;5032233;28;20021;-85
2021/12/27 01:48:32;;;;;;;17.75;5.07;;;10.80;99.90;;;;;;5032045;28;20036;-85
2021/12/27 01:50:59;;;;;;;21.30;5.80;;;10.70;99.90;;;;;;5014145;28;20104;-85
2021/12/27 01:53:27;;;;;;;18.48;5.13;;;10.80;99.90;;;;;;5031768;28;20052;-85
2021/12/27 01:55:54;;;;;;;12.05;5.38;;;10.80;99.90;;;;;;5014038;28;20018;-85
2021/12/27 01:58:22;;;;;;;12.82;4.43;;;10.80;99.90;;;;;;5031586;28;20465;-85
2021/12/27 02:00:51;;;;;;;17.77;5.70;;;10.80;99.90;;;;;;5031496;28;20052;-86
2021/12/27 02:03:19;;;;;;;14.20;6.00;;;10.80;99.90;;;;;;5030865;28;20367;-86
2021/12/27 02:05:45;;;;;;;16.23;5.38;;;10.80;99.90;;;;;;5031462;28;20046;-86
2021/12/27 02:08:12;;;;;;;19.95;5.80;;;10.80;99.90;;;;;;5031691;28;20424;-86
2021/12/27 02:10:39;;;;;;;11.18;4.30;;;10.80;99.90;;;;;;5013832;28;20021;-86
2021/12/27 02:13:06;;;;;;;13.85;6.10;;;10.80;99.90;;;;;;5031463;28;20021;-86
2021/12/27 02:15:32;;;;;;;16.65;5.88;;;10.80;99.90;;;;;;5031395;28;20021;-86
2021/12/27 02:17:58;;;;;;;17.70;4.63;;;10.80;99.90;;;;;;5013324;28;20029;-86
2021/12/27 02:20:26;;;;;;;13.30;4.95;;;10.90;99.90;;;;;;5030839;28;20029;-86
2021/12/27 02:22:55;;;;;;;11.73;4.95;;;10.80;99.90;;;;;;5031153;28;20036;-85
2021/12/27 02:25:22;;;;;;;12.20;4.97;;;10.90;99.90;;;;;;5031217;28;20025;-85
2021/12/27 02:27:48;;;;;;;13.02;4.47;;;10.90;99.90;;;;;;5031100;28;20026;-86
2021/12/27 02:30:21;;;;;;;15.68;5.13;;;10.90;99.90;;;;;;5031306;28;20058;-86
2021/12/27 02:32:48;;;;;;;15.07;5.15;;;10.90;99.90;;;;;;5031067;28;20161;-86
2021/12/27 02:35:19;;;;;;;10.73;5.13;;;10.80;99.90;;;;;;5030820;28;20103;-86
2021/12/27 02:37:45;;;;;;;11.65;5.28;;;10.80;99.90;;;;;;5030905;28;20060;-87
2021/12/27 02:40:12;;;;;;;11.98;4.93;;;10.80;99.90;;;;;;5030692;28;20088;-89
2021/12/27 02:42:58;;;;;;;12.27;5.38;;;10.70;99.90;;;;;;5013080;28;20283;-89
2021/12/27 02:45:26;;;;;;;12.48;5.38;;;10.70;99.90;;;;;;5030307;28;20038;-85
2021/12/27 02:47:52;;;;;;;20.88;6.47;;;10.60;99.90;;;;;;5030660;28;20072;-84
2021/12/27 02:50:18;;;;;;;14.25;5.78;;;10.50;99.90;;;;;;5030692;28;20052;-85
2021/12/27 02:52:44;;;;;;;20.98;7.60;;;10.50;99.90;;;;;;5030885;28;20021;-84
2021/12/27 02:55:12;;;;;;;21.67;7.15;;;10.50;99.90;;;;;;5030595;28;20520;-85
2021/12/27 02:57:39;;;;;;;19.85;7.43;;;10.50;99.90;;;;;;5030585;28;20029;-85
2021/12/27 03:00:10;;;;;;;20.10;7.18;;;10.50;99.90;;;;;;5030381;28;20020;-85
2021/12/27 03:02:39;;;;;;;26.95;8.70;;;10.50;99.90;;;;;;5030357;28;20432;-84
2021/12/27 03:05:05;;;;;;;26.38;7.22;;;10.40;99.90;;;;;;5030021;28;20053;-84
2021/12/27 03:07:31;;;;;;;20.35;6.95;;;10.40;99.90;;;;;;5030328;28;20493;-85
2021/12/27 03:09:58;;;;;;;33.67;7.45;;;10.40;99.90;;;;;;5030293;28;20030;-85
2021/12/27 03:12:24;;;;;;;18.38;7.18;;;10.40;99.90;;;;;;5030424;28;20024;-86
2021/12/27 03:14:51;;;;;;;23.98;7.57;;;10.40;99.90;;;;;;5012325;28;20053;-85
2021/12/27 03:17:16;;;;;;;26.48;7.13;;;10.40;99.90;;;;;;5030361;28;20037;-85
2021/12/27 03:19:42;;;;;;;26.75;6.90;;;10.40;99.90;;;;;;5030131;28;20033;-85
2021/12/27 03:22:07;;;;;;;29.38;8.35;;;10.40;99.90;;;;;;5030071;28;20201;-85
2021/12/27 03:24:33;;;;;;;26.92;7.40;;;10.40;99.90;;;;;;5030514;28;20037;-84
2021/12/27 03:26:59;;;;;;;23.58;6.40;;;10.40;99.90;;;;;;5029972;28;20398;-85
2021/12/27 03:29:24;;;;;;;27.20;6.15;;;10.40;99.90;;;;;;5030223;28;20100;-85
2021/12/27 03:31:54;;;;;;;22.20;6.70;;;10.40;99.90;;;;;;5030019;28;20030;-84
2021/12/27 03:34:20;;;;;;;30.55;7.25;;;10.40;99.90;;;;;;5029994;28;20031;-84
2021/12/27 03:36:47;;;;;;;21.88;6.07;;;10.40;99.90;;;;;;5012393;28;20057;-84
2021/12/27 03:39:14;;;;;;;11.70;5.60;;;10.40;99.90;;;;;;5029859;28;20071;-84
2021/12/27 03:41:40;;;;;;;27.02;7.38;;;10.30;99.90;;;;;;5029910;28;20044;-84
2021/12/27 03:44:06;;;;;;;28.00;5.85;;;10.40;99.90;;;;;;5030069;28;20036;-84
2021/12/27 03:46:32;;;;;;;25.23;5.30;;;10.40;99.90;;;;;;5029917;28;20030;-84
2021/12/27 03:48:57;;;;;;;19.85;5.22;;;10.40;99.90;;;;;;5012058;28;20036;-85
2021/12/27 03:51:23;;;;;;;19.40;5.70;;;10.40;99.90;;;;;;5029880;28;20022;-85
2021/12/27 03:53:49;;;;;;;14.13;4.50;;;10.40;99.90;;;;;;5029966;28;20109;-85
2021/12/27 03:56:15;;;;;;;10.40;4.20;;;10.50;99.90;;;;;;5012076;28;20026;-84
2021/12/27 03:58:54;;;;;;;17.02;4.97;;;10.50;99.90;;;;;;5011743;28;20505;-84
2021/12/27 04:01:21;;;;;;;13.38;3.80;;;10.70;99.90;;;;;;5029554;28;20029;-84
2021/12/27 04:03:54;;;;;;;17.08;3.85;;;10.80;99.90;;;;;;5029934;28;20108;-85
2021/12/27 04:06:21;;;;;;;22.95;4.25;;;10.90;99.90;;;;;;5029366;28;20395;-85
2021/12/27 04:08:48;;;;;;;23.48;5.20;;;11.00;99.90;;;;;;5029996;28;20466;-85
2021/12/27 04:11:14;;;;;;;33.58;5.10;;;11.10;99.90;;;;;;5029854;28;20276;-85
2021/12/27 04:13:40;;;;;;;29.17;4.80;;;11.10;99.90;;;;;;5029821;28;20028;-85
2021/12/27 04:16:06;;;;;;;37.65;5.45;;;11.40;99.90;;;;;;5029717;28;20033;-85
2021/12/27 04:18:32;;;;;;;40.30;4.03;;;11.70;99.90;;;;;;5029322;28;20036;-84
2021/12/27 04:20:58;;;;;;;44.58;5.07;;;11.90;99.90;;;;;;5029528;28;20034;-85
2021/12/27 04:23:24;;;;;;;52.85;5.60;;;12.00;99.90;;;;;;5029589;28;20065;-84
2021/12/27 04:25:49;;;;;;;54.90;6.05;;;12.10;99.90;;;;;;5029730;28;20049;-84
2021/12/27 04:28:17;;;;;;;51.35;6.20;;;12.30;99.90;;;;;;5033744;28;20029;-85
2021/12/27 04:30:43;;;;;;;71.75;7.30;;;12.30;99.90;;;;;;5015604;28;20026;-85
2021/12/27 04:33:09;;;;;;;68.95;7.05;;;12.30;99.90;;;;;;5033167;28;20021;-84
2021/12/27 04:35:35;;;;;;;54.70;8.18;;;12.40;99.90;;;;;;5033234;28;20076;-85
2021/12/27 04:38:01;;;;;;;67.65;7.03;;;12.40;99.90;;;;;;5015378;28;20029;-85
2021/12/27 04:40:29;;;;;;;64.78;6.72;;;12.50;99.90;;;;;;5033075;28;20502;-85
2021/12/27 04:43:00;;;;;;;52.17;7.03;;;12.60;99.90;;;;;;5033065;28;20063;-85
2021/12/27 04:45:26;;;;;;;51.13;5.78;;;12.60;99.90;;;;;;5015158;28;20029;-86
2021/12/27 04:47:52;;;;;;;71.85;7.32;;;12.60;99.90;;;;;;5032884;28;20022;-86
2021/12/27 04:50:18;;;;;;;55.67;7.40;;;12.60;99.90;;;;;;5032764;28;20029;-86
2021/12/27 04:52:45;;;;;;;59.88;7.78;;;12.60;99.90;;;;;;5015149;28;20025;-86
2021/12/27 04:55:11;;;;;;;56.97;7.45;;;12.60;99.90;;;;;;5015191;28;20424;-87
2021/12/27 04:57:37;;;;;;;63.28;7.57;;;12.60;99.90;;;;;;5015009;28;20505;-87
2021/12/27 05:00:05;;;;;;;53.95;8.60;;;12.70;99.90;;;;;;5015056;28;20382;-87
2021/12/27 05:02:31;;;;;;;62.08;8.60;;;12.70;99.90;;;;;;5032499;28;20025;-87
2021/12/27 05:04:56;;;;;;;63.30;7.15;;;12.80;99.90;;;;;;5032223;28;20029;-87
2021/12/27 05:07:22;;;;;;;68.75;7.70;;;12.70;99.90;;;;;;5032573;28;20030;-87
2021/12/27 05:09:48;;;;;;;61.22;8.57;;;12.70;99.90;;;;;;5032466;28;20368;-87
2021/12/27 05:12:14;;;;;;;67.72;8.77;;;12.70;99.90;;;;;;5014545;28;20032;-87
2021/12/27 05:14:39;;;;;;;67.72;9.48;;;12.70;99.90;;;;;;5014700;28;20394;-87
2021/12/27 05:17:05;;;;;;;69.50;9.95;;;12.70;99.90;;;;;;5032276;28;20564;-87
2021/12/27 05:19:31;;;;;;;71.50;9.00;;;12.70;99.90;;;;;;5014575;28;20062;-87
2021/12/27 05:21:56;;;;;;;75.50;8.43;;;12.70;99.90;;;;;;5032299;28;20045;-87
2021/12/27 05:24:23;;;;;;;81.65;9.65;;;12.70;99.90;;;;;;5032248;28;20057;-87
2021/12/27 05:26:49;;;;;;;78.07;10.30;;;12.70;99.90;;;;;;5032174;28;20031;-86
2021/12/27 05:29:17;;;;;;;72.43;9.55;;;12.80;99.90;;;;;;5032209;28;20516;-87
2021/12/27 05:31:42;;;;;;;83.43;9.93;;;12.80;99.90;;;;;;5014511;28;20028;-87
2021/12/27 05:34:10;;;;;;;93.35;11.02;;;12.80;99.90;;;;;;5014334;28;20014;-88
2021/12/27 05:36:35;;;;;;;95.30;12.60;;;12.80;99.90;;;;;;5014214;28;20029;-88
2021/12/27 05:39:01;;;;;;;75.88;10.00;;;12.80;99.90;;;;;;5014375;28;20037;-88
2021/12/27 05:41:27;;;;;;;94.93;11.90;;;12.70;99.90;;;;;;5014071;28;20124;-87
2021/12/27 05:43:52;;;;;;;89.53;11.80;;;12.70;99.90;;;;;;5032201;28;20049;-87
2021/12/27 05:46:18;;;;;;;86.25;11.20;;;12.80;99.90;;;;;;5031843;28;20036;-87
2021/12/27 05:48:44;;;;;;;85.75;9.95;;;12.80;99.90;;;;;;5031578;28;20024;-87
2021/12/27 05:51:09;;;;;;;86.47;9.68;;;12.80;99.90;;;;;;5031907;28;20030;-87
2021/12/27 05:53:35;;;;;;;75.18;9.57;;;12.80;99.90;;;;;;5031774;28;20147;-87
2021/12/27 05:56:01;;;;;;;91.75;11.60;;;12.80;99.90;;;;;;5031960;28;20493;-88
2021/12/27 05:58:27;;;;;;;94.38;13.25;;;12.80;99.90;;;;;;5031677;28;20032;-87
2021/12/27 06:00:53;;;;;;;83.35;11.50;;;12.80;99.90;;;;;;5013774;28;20699;-88
2021/12/27 06:03:20;;;;;;;109.88;13.23;;;12.80;99.90;;;;;;5031790;28;20394;-88
2021/12/27 06:05:46;;;;;;;85.20;10.90;;;12.80;99.90;;;;;;5013496;28;20049;-88
2021/12/27 06:08:12;;;;;;;96.88;11.90;;;12.90;99.90;;;;;;5013446;28;20021;-88
2021/12/27 06:10:38;;;;;;;88.50;12.70;;;12.90;99.90;;;;;;5031324;28;20417;-87
2021/12/27 06:13:04;;;;;;;105.10;13.18;;;12.90;99.90;;;;;;5031311;28;20046;-88
2021/12/27 06:15:30;;;;;;;91.65;10.80;;;12.80;99.90;;;;;;5031406;28;20025;-87
2021/12/27 06:17:56;;;;;;;97.72;11.60;;;12.80;99.90;;;;;;5031247;28;20025;-88
2021/12/27 06:20:21;;;;;;;96.55;13.60;;;12.70;99.90;;;;;;5031051;28;20045;-89
2021/12/27 06:22:54;;;;;;;105.45;12.70;;;12.70;99.90;;;;;;5013345;28;20125;-87
2021/12/27 06:25:20;;;;;;;101.20;14.15;;;12.60;99.90;;;;;;5030957;28;20057;-88
2021/12/27 06:27:46;;;;;;;99.93;13.73;;;12.50;99.90;;;;;;5030783;28;20056;-87
2021/12/27 06:30:13;;;;;;;112.47;13.50;;;12.50;99.90;;;;;;5030950;28;20053;-87
2021/12/27 06:32:40;;;;;;;121.57;14.38;;;12.40;99.90;;;;;;5031133;28;20441;-87
2021/12/27 06:35:08;;;;;;;108.63;13.43;;;12.50;99.90;;;;;;5030630;28;20028;-88
2021/12/27 06:37:34;;;;;;;105.72;15.68;;;12.50;99.90;;;;;;5031237;28;20033;-87
2021/12/27 06:39:59;;;;;;;120.88;13.80;;;12.50;99.90;;;;;;5031229;28;20100;-86
2021/12/27 06:42:25;;;;;;;103.15;13.38;;;12.60;99.90;;;;;;5031123;28;20037;-86
2021/12/27 06:44:51;;;;;;;110.47;14.55;;;12.60;99.90;;;;;;5030805;28;20057;-87
2021/12/27 06:47:17;;;;;;;114.35;15.25;;;12.70;99.90;;;;;;5030642;28;20390;-87
2021/12/27 06:49:43;;;;;;;104.50;15.38;;;12.70;99.90;;;;;;5029708;28;20025;-87
2021/12/27 06:52:11;;;;;;;104.55;14.50;;;12.80;99.90;;;;;;5030541;28;20017;-86
2021/12/27 06:54:37;;;;;;;104.05;14.60;;;12.80;99.90;;;;;;5030427;28;20033;-87
2021/12/27 06:57:03;;;;;;;101.07;15.10;;;12.80;99.90;;;;;;5030566;28;20109;-86
2021/12/27 06:59:30;;;;;;;108.80;13.88;;;12.80;99.90;;;;;;5030950;28;20282;-86
2021/12/27 07:01:56;;;;;;;102.18;13.52;;;12.80;99.90;;;;;;5030571;28;20037;-86
2021/12/27 07:04:22;;;;;;;113.80;16.20;;;12.80;99.90;;;;;;5012625;28;20409;-86
2021/12/27 07:06:47;;;;;;;112.38;14.85;;;12.90;99.90;;;;;;5030177;28;20049;-86
2021/12/27 07:09:13;;;;;;;115.50;15.05;;;12.90;99.90;;;;;;5012316;28;20025;-86
2021/12/27 07:11:41;;;;;;;100.00;13.57;;;12.90;99.90;;;;;;5030274;28;20036;-85
2021/12/27 07:14:06;;;;;;;125.32;14.75;;;12.90;99.90;;;;;;5012845;28;20120;-85
2021/12/27 07:16:32;;;;;;;114.57;16.67;;;12.90;99.90;;;;;;5012531;28;20505;-85
2021/12/27 07:18:58;;;;;;;122.40;16.05;;;12.90;99.90;;;;;;5030168;28;20108;-85
2021/12/27 07:21:24;;;;;;;121.32;13.88;;;12.90;99.90;;;;;;5030185;28;20041;-85
2021/12/27 07:23:49;;;;;;;115.05;15.82;;;12.90;99.90;;;;;;5030256;28;20025;-85
2021/12/27 07:26:15;;;;;;;119.57;15.35;;;12.80;99.90;;;;;;5012374;28;20118;-85
2021/12/27 07:28:41;;;;;;;102.28;13.85;;;12.80;99.90;;;;;;5012299;28;20021;-84
2021/12/27 07:31:07;;;;;;;112.18;15.32;;;12.90;99.90;;;;;;5029962;28;20488;-84
2021/12/27 07:33:34;;;;;;;114.63;14.50;;;12.80;99.90;;;;;;5012000;28;20045;-84
2021/12/27 07:36:02;;;;;;;112.20;16.48;;;12.80;99.90;;;;;;5030035;28;20029;-89
2021/12/27 07:38:27;;;;;;;116.53;15.20;;;12.80;99.90;;;;;;5030216;28;20032;-90
2021/12/27 07:40:53;;;;;;;107.45;15.65;;;12.70;99.90;;;;;;5030153;28;20038;-90
2021/12/27 07:43:19;;;;;;;105.30;15.10;;;12.80;99.90;;;;;;5030006;28;20021;-90
2021/12/27 07:45:44;;;;;;;122.55;16.42;;;12.70;99.90;;;;;;5030019;28;20021;-90
2021/12/27 07:48:10;;;;;;;110.90;15.73;;;12.80;99.90;;;;;;5012410;28;20402;-90
2021/12/27 07:50:38;;;;;;;117.75;15.57;;;12.80;99.90;;;;;;5012017;28;20029;-90
2021/12/27 07:53:05;;;;;;;111.70;13.85;;;12.70;99.90;;;;;;5012228;28;20449;-90
2021/12/27 07:55:32;;;;;;;120.70;15.45;;;12.70;99.90;;;;;;5030058;28;20597;-91
2021/12/27 07:57:58;;;;;;;115.15;14.75;;;12.70;99.90;;;;;;5030099;28;20079;-90
2021/12/27 08:00:25;;;;;;;113.68;15.38;;;12.70;99.90;;;;;;5014099;28;20120;-91
2021/12/27 08:02:51;;;;;;;116.28;16.17;;;12.70;99.90;;;;;;5034321;28;20490;-91
2021/12/27 08:05:18;;;;;;;114.03;15.48;;;12.70;99.90;;;;;;5034084;28;20057;-91
2021/12/27 08:07:43;;;;;;;109.93;15.30;;;12.60;99.90;;;;;;5016395;28;20493;-91
2021/12/27 08:10:11;;;;;;;104.53;14.90;;;12.60;99.90;;;;;;5034170;28;20029;-91
2021/12/27 08:12:37;;;;;;;114.03;15.65;;;12.60;99.90;;;;;;5016361;28;20398;-92
2021/12/27 08:15:08;;;;;;;109.80;13.82;;;12.60;99.90;;;;;;5016462;28;20489;-92
2021/12/27 08:17:34;;;;;;;108.22;14.68;;;12.60;99.90;;;;;;5016395;28;20055;-92
2021/12/27 08:19:59;;;;;;;110.18;15.27;;;12.60;99.90;;;;;;5016984;28;20064;-93
2021/12/27 08:22:25;;;;;;;97.60;15.40;;;12.60;99.90;;;;;;5016523;28;20565;-92
2021/12/27 08:24:51;;;;;;;97.03;13.32;;;12.60;99.90;;;;;;5016742;28;20335;-95
2021/12/27 08:27:20;;;;;;;116.30;13.77;;;12.50;99.90;;;;;;5016831;28;20029;-92
2021/12/27 08:29:46;;;;;;;113.32;14.77;;;12.60;99.90;;;;;;5016432;28;20160;-93
2021/12/27 08:32:12;;;;;;;120.40;17.50;;;12.50;99.90;;;;;;5034127;28;20049;-93
2021/12/27 08:34:37;;;;;;;121.30;15.13;;;12.50;99.90;;;;;;5016103;28;20071;-92
2021/12/27 08:37:03;;;;;;;125.40;17.77;;;12.40;99.90;;;;;;5016505;28;20051;-92
2021/12/27 08:39:29;;;;;;;125.70;15.65;;;12.30;99.90;;;;;;5016633;28;20033;-93
2021/12/27 08:41:55;;;;;;;141.48;16.00;;;12.30;99.90;;;;;;5016368;28;20175;-92
2021/12/27 08:44:21;;;;;;;133.68;19.52;;;12.20;99.90;;;;;;5016501;28;20018;-93
2021/12/27 08:46:47;;;;;;;126.05;16.33;;;12.20;99.90;;;;;;5016564;28;20021;-93
2021/12/27 08:49:12;;;;;;;139.93;17.63;;;12.20;99.90;;;;;;5016013;28;20084;-93
2021/12/27 08:51:38;;;;;;;110.47;14.98;;;12.20;99.90;;;;;;5016441;28;20112;-92
2021/12/27 08:54:04;;;;;;;130.30;15.93;;;12.20;99.90;;;;;;5033794;28;20025;-94
2021/12/27 08:56:33;;;;;;;118.63;15.80;;;12.20;99.90;;;;;;5016799;28;20021;-93
2021/12/27 08:58:59;;;;;;;118.10;15.32;;;12.30;99.90;;;;;;5017935;28;20382;-94
2021/12/27 09:01:26;;;;;;;117.78;16.63;;;12.30;99.90;;;;;;5019896;28;20063;-94
2021/12/27 09:03:52;;;;;;;123.60;16.25;;;12.30;99.90;;;;;;5019392;28;20034;-94
2021/12/27 09:06:17;;;;;;;112.13;15.35;;;12.40;99.90;;;;;;5015910;28;20060;-93
2021/12/27 09:08:43;;;;;;;119.15;15.77;;;12.40;99.90;;;;;;5016124;28;20083;-93
2021/12/27 09:11:09;;;;;;;114.90;14.65;;;12.50;99.90;;;;;;5016083;28;20485;-93
2021/12/27 09:13:38;;;;;;;112.63;15.82;;;12.50;99.90;;;;;;5015025;28;20108;-93
2021/12/27 09:16:05;;;;;;;106.13;14.32;;;12.50;99.90;;;;;;5016051;28;20389;-94
2021/12/27 09:18:32;;;;;;;117.82;14.75;;;12.50;99.90;;;;;;5015892;28;20052;-93
2021/12/27 09:20:59;;;;;;;114.78;14.35;;;12.50;99.90;;;;;;5015700;28;20486;-94
2021/12/27 09:23:25;;;;;;;101.03;14.35;;;12.60;99.90;;;;;;5016045;28;20037;-93
2021/12/27 09:25:50;;;;;;;119.63;16.65;;;12.60;99.90;;;;;;5015994;28;20025;-94
2021/12/27 09:28:16;;;;;;;96.00;13.98;;;12.60;99.90;;;;;;5015893;28;20021;-94
2021/12/27 09:30:43;;;;;;;102.53;13.45;;;12.70;99.90;;;;;;5014985;28;20029;-94
2021/12/27 09:33:09;;;;;;;118.50;15.80;;;12.70;99.90;;;;;;5015513;28;20026;-94
2021/12/27 09:35:35;;;;;;;106.25;15.10;;;12.70;99.90;;;;;;5015715;28;20017;-94
2021/12/27 09:38:01;;;;;;;109.95;15.60;;;12.70;99.90;;;;;;5015150;28;20060;-94
2021/12/27 09:40:34;;;;;;;100.93;14.98;;;12.70;99.90;;;;;;5015565;28;20057;-94
2021/12/27 09:43:00;;;;;;;116.93;14.55;;;12.80;99.90;;;;;;5015302;28;20088;-94
2021/12/27 09:45:25;;;;;;;108.97;16.38;;;12.80;99.90;;;;;;5016086;28;20446;-94
2021/12/27 09:47:54;;;;;;;114.90;14.65;;;12.80;99.90;;;;;;5015694;28;20469;-94
2021/12/27 09:50:44;;;;;;;108.82;15.93;;;12.90;99.90;;;;;;5015172;28;20017;-96
2021/12/27 09:53:11;;;;;;;103.13;15.38;;;13.00;99.90;;;;;;5003540;28;20379;-94
2021/12/27 09:55:49;;;;;;;101.45;14.27;;;13.10;99.90;;;;;;5015144;28;20036;-94
2021/12/27 09:58:25;;;;;;;121.95;18.10;;;13.10;99.90;;;;;;5015149;28;20368;-94
2021/12/27 10:00:57;;;;;;;110.05;15.30;;;13.10;99.90;;;;;;5015340;28;20038;-94
2021/12/27 10:03:23;;;;;;;107.38;13.73;;;13.00;99.90;;;;;;5014651;28;20029;-94
2021/12/27 10:05:49;;;;;;;93.68;14.60;;;13.00;99.90;;;;;;5015210;28;20062;-94
2021/12/27 10:08:18;;;;;;;111.88;17.00;;;13.00;99.90;;;;;;5015140;28;20017;-95
2021/12/27 10:10:46;;;;;;;134.68;18.48;;;13.00;99.90;;;;;;5014829;28;20022;-94
2021/12/27 10:13:14;;;;;;;110.35;16.10;;;12.90;99.90;;;;;;5014912;28;20382;-94
2021/12/27 10:15:41;;;;;;;119.38;16.30;;;13.00;99.90;;;;;;5031971;28;20025;-94
2021/12/27 10:18:16;;;;;;;96.75;14.73;;;13.00;99.90;;;;;;5014361;28;20048;-95
2021/12/27 10:20:52;;;;;;;114.57;17.10;;;13.00;99.90;;;;;;5014420;28;20025;-94
2021/12/27 10:23:26;;;;;;;109.32;16.77;;;13.10;99.90;;;;;;5014221;28;20072;-94
2021/12/27 10:25:52;;;;;;;;;;;13.10;99.90;;;;;;5014774;28;20030;-95
2021/12/27 10:28:26;;;;;;;102.07;16.67;;;13.10;99.90;;;;;;5014703;28;19905;-94
2021/12/27 10:31:02;;;;;;;111.78;17.45;;;13.10;99.90;;;;;;5014689;28;20164;-94
2021/12/27 10:33:33;;;;;;;108.95;16.33;;;13.10;99.90;;;;;;5014431;28;20071;-94
2021/12/27 10:35:59;;;;;;;115.03;17.42;;;13.00;99.90;;;;;;5014078;28;20057;-93
2021/12/27 10:38:41;;;;;;;108.75;16.33;;;12.90;99.90;;;;;;5014426;28;20025;-93
2021/12/27 10:41:11;;;;;;;115.65;17.02;;;12.90;99.90;;;;;;5014283;28;20034;-94
2021/12/27 10:43:45;;;;;;;114.78;18.88;;;12.90;99.90;;;;;;5014271;28;20087;-94
2021/12/27 10:46:33;;;;;;;125.05;17.65;;;12.90;99.90;;;;;;5014062;28;20097;-93
2021/12/27 10:49:04;;;;;;;124.47;17.83;;;12.90;99.90;;;;;;5014050;28;20029;-93
2021/12/27 10:51:32;;;;;;;118.47;15.45;;;12.90;99.90;;;;;;5032981;28;20144;-94
2021/12/27 10:54:00;;;;;;;107.38;15.57;;;12.90;99.90;;;;;;5035718;28;20114;-95
2021/12/27 10:56:53;;;;;;;97.97;13.98;;;13.00;99.90;;;;;;5014518;28;20013;-94
2021/12/27 10:59:37;;;;;;;89.90;12.70;;;12.90;99.90;;;;;;5014115;28;20033;-94
2021/12/27 11:02:16;;;;;;;84.47;11.02;;;12.90;99.90;;;;;;5031508;28;20041;-94
2021/12/27 11:05:10;;;;;;;88.40;12.13;;;12.90;99.90;;;;;;5013473;28;20363;-95
2021/12/27 11:07:39;;;;;;;80.63;11.77;;;12.90;99.90;;;;;;5013905;28;20149;-94
2021/12/27 11:10:20;;;;;;;70.13;10.00;;;12.90;99.90;;;;;;5013814;28;20029;-95
2021/12/27 11:12:49;;;;;;;71.43;10.85;;;13.00;99.90;;;;;;5014056;28;20051;-93
2021/12/27 11:15:25;;;;;;;61.80;10.65;;;13.00;99.90;;;;;;5014146;28;20029;-94
2021/12/27 11:18:00;;;;;;;64.85;10.25;;;13.10;99.90;;;;;;5014279;28;20458;-95
2021/12/27 11:20:29;;;;;;;61.22;8.65;;;13.20;99.90;;;;;;5017390;28;20030;-93
2021/12/27 11:22:59;;;;;;;58.88;8.70;;;13.20;99.90;;;;;;5002248;28;20057;-94
2021/12/27 11:26:08;;;;;;;;;;;;;;;;;;;;;
2021/12/27 11:28:57;;;;;;;65.55;9.70;;;13.20;99.90;;;;;;4997058;28;20409;-92
2021/12/27 11:31:31;;;;;;;62.15;10.18;;;13.20;99.90;;;;;;5003016;28;20033;-94
2021/12/27 11:34:09;;;;;;;;;;;13.10;99.90;;;;;;5011109;28;20072;-92
2021/12/27 11:36:53;;;;;;;59.67;9.73;;;13.00;99.90;;;;;;5013048;28;19960;-93
2021/12/27 11:39:44;;;;;;;61.25;9.02;;;13.00;99.90;;;;;;5013126;28;20124;-93
2021/12/27 11:42:18;;;;;;;53.38;8.60;;;13.10;99.90;;;;;;5031192;28;20041;-94
2021/12/27 11:44:56;;;;;;;58.53;8.30;;;13.10;99.90;;;;;;5013235;28;20029;-92
2021/12/27 11:47:30;;;;;;;56.63;8.20;;;13.10;99.90;;;;;;5013250;28;20033;-91
2021/12/27 11:50:01;;;;;;;58.72;8.10;;;13.10;99.90;;;;;;5013164;28;20108;-93
2021/12/27 11:52:33;;;;;;;64.03;9.32;;;13.00;99.90;;;;;;5012672;28;20485;-91
2021/12/27 11:55:05;;;;;;;63.20;9.05;;;12.90;99.90;;;;;;5012461;28;20486;-90
2021/12/27 11:57:56;;;;;;;62.95;10.07;;;12.80;99.90;;;;;;5012067;28;20021;-87
2021/12/27 12:00:21;;;;;;;65.60;9.50;;;12.80;99.90;;;;;;5029647;28;20021;-87
2021/12/27 12:02:48;;;;;;;76.63;9.27;;;12.70;99.90;;;;;;5011888;28;20048;-87
2021/12/27 12:05:37;;;;;;;80.40;10.88;;;12.70;99.90;;;;;;5011819;28;20021;-87
2021/12/27 12:08:05;;;;;;;69.30;9.68;;;12.60;99.90;;;;;;5011748;28;20037;-86
2021/12/27 12:10:31;;;;;;;70.65;10.32;;;12.60;99.90;;;;;;5011985;28;20390;-88
2021/12/27 12:13:23;;;;;;;68.10;10.32;;;12.60;99.90;;;;;;5012162;28;20111;-88
2021/12/27 12:15:58;;;;;;;73.80;9.85;;;12.60;99.90;;;;;;5029462;28;20037;-88
2021/12/27 12:18:24;;;;;;;82.40;10.65;;;12.60;99.90;;;;;;5011647;28;20496;-86
2021/12/27 12:20:49;;;;;;;78.65;11.50;;;12.60;99.90;;;;;;5029478;28;20064;-87
2021/12/27 12:23:18;;;;;;;91.70;12.57;;;12.60;99.90;;;;;;5029382;28;20486;-87
2021/12/27 12:25:44;;;;;;;75.22;11.57;;;12.50;99.90;;;;;;5029568;28;20028;-87
2021/12/27 12:28:13;;;;;;;98.50;11.10;;;12.60;99.90;;;;;;5029688;28;20394;-87
2021/12/27 12:30:41;;;;;;;82.80;9.82;;;12.60;99.90;;;;;;5011801;28;20181;-87
2021/12/27 12:33:08;;;;;;;82.00;11.68;;;12.50;99.90;;;;;;5029388;28;20033;-87
2021/12/27 12:35:52;;;;;;;69.80;10.05;;;12.50;99.90;;;;;;5011628;28;20368;-88
2021/12/27 12:38:22;;;;;;;69.15;10.45;;;12.50;99.90;;;;;;5029280;28;20593;-88